Wilson Lahn — 8PUO — position and weather

sailwx.info

Track history (hours):
 
Tides and Currents Weather Stations Pressure Air Temp Water Temp Dewpoint Dewpoint Depression Visibility Wind Speed Wind Dir Waves Ship Positions

Wilson Lahn

Last reported at 2018-Apr-27 05:54 UTC. Time now 2018-Apr-27 08:40 UTC.
Position N 59°07' E 004°51'.

Length 83 m; draft 4.7 m.

Type: Cargo ship. MMSI: 314259000.

Date/timePositionNaut miles runAvg speedWind from/ knotsBaromVisibWave heightAir tempDewpointWater temp
2018-Apr-27 05:54N 59°07' E 004°51'4 9.0
2018-Apr-27 05:31N 59°04' E 004°54'5 9.2
2018-Apr-27 05:00N 59°00' E 004°59'5 9.3
2018-Apr-27 04:30N 58°56' E 005°04'5 9.7
2018-Apr-27 04:00N 58°52' E 005°09'5 9.7
2018-Apr-27 03:30N 58°48' E 005°14'5 9.3
2018-Apr-27 03:01N 58°44' E 005°18'4 8.8
2018-Apr-27 02:31N 58°40' E 005°22'4 8.6
2018-Apr-27 02:00N 58°37' E 005°26'4 8.9
2018-Apr-27 01:30N 58°33' E 005°31'5 9.2
2018-Apr-27 01:00N 58°29' E 005°36'5 9.2
2018-Apr-27 00:30N 58°26' E 005°42'5 9.3
2018-Apr-27 00:01N 58°23' E 005°49'5 9.3
2018-Apr-26 23:31N 58°20' E 005°56'4 9.0
2018-Apr-26 23:01N 58°17' E 006°02'4 8.5
2018-Apr-26 22:30N 58°14' E 006°08'4 8.5
2018-Apr-26 22:00N 58°11' E 006°14'4 8.7
2018-Apr-26 21:30N 58°08' E 006°20'4 8.7
2018-Apr-26 21:01N 58°05' E 006°26'4 8.6
2018-Apr-26 20:30N 58°02' E 006°32'4 8.2
2018-Apr-26 20:00N 57°60' E 006°38'4 8.3
2018-Apr-26 19:30N 57°58' E 006°45'4 8.5
2018-Apr-26 19:01N 57°56' E 006°53'510.4
2018-Apr-26 18:30N 57°55' E 007°02'510.4
2018-Apr-26 18:00N 57°54' E 007°12'5 9.1
2018-Apr-26 17:30N 57°54' E 007°20'4 8.8
2018-Apr-26 17:00N 57°54' E 007°29'4 8.6
2018-Apr-26 16:30N 57°54' E 007°37'5 8.7
2018-Apr-26 15:59N 57°53' E 007°45'4 8.7
2018-Apr-26 15:30N 57°53' E 007°53'4 8.6
2018-Apr-26 15:00N 57°53' E 008°01'4 8.6
2018-Apr-26 14:30N 57°53' E 008°09'4 8.5
2018-Apr-26 13:59N 57°52' E 008°17'74 8.9
2018-Apr-26 05:42N 57°49' E 010°36'1 6.8
2018-Apr-26 05:29N 57°48' E 010°39'3 6.7
2018-Apr-26 05:00N 57°48' E 010°45'4 7.7
2018-Apr-26 04:30N 57°44' E 010°47'510.4
2018-Apr-26 04:01N 57°39' E 010°47'510.3
2018-Apr-26 03:30N 57°34' E 010°45'510.2
2018-Apr-26 03:00N 57°29' E 010°45'510.0
2018-Apr-26 02:30N 57°24' E 010°44'76 6.7
2018-Apr-25 15:16N 56°10' E 010°14'1 0.1
2018-Apr-25 03:48N 56°09' E 010°13'1 2.5
2018-Apr-25 03:28N 56°10' E 010°14'3 6.8
2018-Apr-25 03:00N 56°08' E 010°19'71 9.6
2018-Apr-24 19:36N 56°10' E 012°26'310.5
2018-Apr-24 19:19N 56°08' E 012°31'410.8
2018-Apr-24 18:55N 56°05' E 012°36'4 9.5
2018-Apr-24 18:30N 56°02' E 012°40'510.0
2018-Apr-24 18:00N 55°57' E 012°43'510.4
2018-Apr-24 17:30N 55°53' E 012°47'2 3.6
2018-Apr-24 17:00N 55°52' E 012°50'0 0.0
2018-Apr-24 16:30N 55°52' E 012°50'0 0.0
2018-Apr-24 16:00N 55°52' E 012°50'0 0.0
2018-Apr-24 15:30N 55°52' E 012°50'0 0.0
2018-Apr-24 14:58N 55°52' E 012°50'0 0.0
2018-Apr-24 14:28N 55°52' E 012°50'0 0.0
2018-Apr-24 13:55N 55°52' E 012°50'0 0.0
2018-Apr-24 13:28N 55°52' E 012°50'0 0.0
2018-Apr-24 12:58N 55°52' E 012°50'0 0.0
2018-Apr-24 12:28N 55°52' E 012°50'0 0.0
2018-Apr-24 11:58N 55°52' E 012°50'0 0.0
2018-Apr-24 11:28N 55°52' E 012°50'0 0.0
2018-Apr-24 10:58N 55°52' E 012°50'0 0.0
2018-Apr-24 10:28N 55°52' E 012°50'0 0.0
2018-Apr-24 09:58N 55°52' E 012°50'0 0.0
2018-Apr-24 09:25N 55°52' E 012°50'0 0.0
2018-Apr-24 08:58N 55°52' E 012°50'0 0.0
2018-Apr-24 08:28N 55°52' E 012°50'0 0.0
2018-Apr-24 07:58N 55°52' E 012°50'0 0.0
2018-Apr-24 07:28N 55°52' E 012°50'0 0.0
2018-Apr-24 06:55N 55°52' E 012°50'0 0.0
2018-Apr-24 06:28N 55°52' E 012°50'0 0.0
2018-Apr-24 05:58N 55°52' E 012°50'0 0.0
2018-Apr-24 05:28N 55°52' E 012°50'0 0.0
2018-Apr-24 04:58N 55°52' E 012°50'0 0.0
2018-Apr-24 04:25N 55°52' E 012°50'0 0.0
2018-Apr-24 03:58N 55°52' E 012°50'0 0.0
2018-Apr-24 03:28N 55°52' E 012°50'0 0.0
2018-Apr-24 02:58N 55°52' E 012°50'0 0.0
2018-Apr-24 02:28N 55°52' E 012°50'0 0.0
2018-Apr-24 01:58N 55°52' E 012°50'0 0.0
2018-Apr-24 01:28N 55°52' E 012°50'0 0.0
2018-Apr-24 00:58N 55°52' E 012°50'0 0.0
2018-Apr-24 00:28N 55°52' E 012°50'0 0.0
2018-Apr-23 23:58N 55°52' E 012°50'0 0.0
2018-Apr-23 23:28N 55°52' E 012°50'0 0.0
2018-Apr-23 22:58N 55°52' E 012°50'0 0.0
2018-Apr-23 22:28N 55°52' E 012°50'0 0.0
2018-Apr-23 21:58N 55°52' E 012°50'0 0.0
2018-Apr-23 21:28N 55°52' E 012°50'0 0.0
2018-Apr-23 20:58N 55°52' E 012°50'0 0.0
2018-Apr-23 20:28N 55°52' E 012°50'0 0.0
2018-Apr-23 19:55N 55°52' E 012°50'0 0.0
2018-Apr-23 19:28N 55°52' E 012°50'0 0.0
2018-Apr-23 18:58N 55°52' E 012°50'0 0.0
2018-Apr-23 18:28N 55°52' E 012°50'0 0.0
2018-Apr-23 17:58N 55°52' E 012°50'0 0.0
2018-Apr-23 17:25N 55°52' E 012°50'0 0.0
2018-Apr-23 16:58N 55°52' E 012°50'0 0.0
2018-Apr-23 16:28N 55°52' E 012°50'0 0.0
2018-Apr-23 15:58N 55°52' E 012°50'0 0.0
2018-Apr-23 15:28N 55°52' E 012°50'0 0.0
2018-Apr-23 14:58N 55°52' E 012°50'0 0.0
2018-Apr-23 14:28N 55°52' E 012°50'0 0.0
2018-Apr-23 13:58N 55°52' E 012°50'0 0.0
2018-Apr-23 13:28N 55°52' E 012°50'0 0.0
2018-Apr-23 12:58N 55°52' E 012°50'0 0.0
2018-Apr-23 12:28N 55°52' E 012°50'0 0.0
2018-Apr-23 11:58N 55°52' E 012°50'0 0.0
2018-Apr-23 11:28N 55°52' E 012°50'0 0.0
2018-Apr-23 10:58N 55°52' E 012°50'0 0.0
2018-Apr-23 10:28N 55°52' E 012°50'0 0.0
2018-Apr-23 09:58N 55°52' E 012°50'0 0.0
2018-Apr-23 09:28N 55°52' E 012°50'0 0.0
2018-Apr-23 08:58N 55°52' E 012°50'0 0.0
2018-Apr-23 08:28N 55°52' E 012°50'0 0.0
2018-Apr-23 07:58N 55°52' E 012°50'0 0.0
2018-Apr-23 07:28N 55°52' E 012°50'0 0.0
2018-Apr-23 06:58N 55°52' E 012°50'0 0.0
2018-Apr-23 06:25N 55°52' E 012°50'0 0.0
2018-Apr-23 05:58N 55°52' E 012°50'0 0.0
2018-Apr-23 05:28N 55°52' E 012°50'0 0.0
2018-Apr-23 04:58N 55°52' E 012°50'0 0.0
2018-Apr-23 04:28N 55°52' E 012°50'0 0.0
2018-Apr-23 03:58N 55°52' E 012°50'0 0.0
2018-Apr-23 03:28N 55°52' E 012°50'0 0.0
2018-Apr-23 02:58N 55°52' E 012°50'0 0.0
2018-Apr-23 02:28N 55°52' E 012°50'0 0.0
2018-Apr-23 01:58N 55°52' E 012°50'0 0.0
2018-Apr-23 01:28N 55°52' E 012°50'0 0.0
2018-Apr-23 00:58N 55°52' E 012°50'0 0.0
2018-Apr-23 00:28N 55°52' E 012°50'0 0.0
2018-Apr-22 23:58N 55°52' E 012°50'0 0.0
2018-Apr-22 23:28N 55°52' E 012°50'0 0.0
2018-Apr-22 22:58N 55°52' E 012°50'0 0.0
2018-Apr-22 22:28N 55°52' E 012°50'0 0.0
2018-Apr-22 21:58N 55°52' E 012°50'0 0.0
2018-Apr-22 21:28N 55°52' E 012°50'0 0.0
2018-Apr-22 20:58N 55°52' E 012°50'0 0.0
2018-Apr-22 20:28N 55°52' E 012°50'0 0.0
2018-Apr-22 19:58N 55°52' E 012°50'0 0.0
2018-Apr-22 19:28N 55°52' E 012°50'0 0.0
2018-Apr-22 18:58N 55°52' E 012°50'0 0.0
2018-Apr-22 18:28N 55°52' E 012°50'0 0.0
2018-Apr-22 17:58N 55°52' E 012°50'0 0.0
2018-Apr-22 17:28N 55°52' E 012°50'0 0.0
2018-Apr-22 16:58N 55°52' E 012°50'0 0.0
2018-Apr-22 16:28N 55°52' E 012°50'0 0.0
2018-Apr-22 15:58N 55°52' E 012°50'0 0.0
2018-Apr-22 15:28N 55°52' E 012°50'0 0.0
2018-Apr-22 14:58N 55°52' E 012°50'0 0.0
2018-Apr-22 14:28N 55°52' E 012°50'0 0.0
2018-Apr-22 13:58N 55°52' E 012°50'0 0.0
2018-Apr-22 13:28N 55°52' E 012°50'0 0.0
2018-Apr-22 12:58N 55°52' E 012°50'0 0.0
2018-Apr-22 12:25N 55°52' E 012°50'0 0.0
2018-Apr-22 11:58N 55°52' E 012°50'0 0.0
2018-Apr-22 11:25N 55°52' E 012°50'0 0.0
2018-Apr-22 10:58N 55°52' E 012°50'0 0.0
2018-Apr-22 10:28N 55°52' E 012°50'0 0.0
2018-Apr-22 09:58N 55°52' E 012°50'0 0.0
2018-Apr-22 09:28N 55°52' E 012°50'0 0.0
2018-Apr-22 08:58N 55°52' E 012°50'0 0.0
2018-Apr-22 08:28N 55°52' E 012°50'0 0.0
2018-Apr-22 07:58N 55°52' E 012°50'0 0.0
2018-Apr-22 07:28N 55°52' E 012°50'0 0.0
2018-Apr-22 06:58N 55°52' E 012°50'0 0.0
2018-Apr-22 06:28N 55°52' E 012°50'0 0.0
2018-Apr-22 05:58N 55°52' E 012°50'0 0.0
2018-Apr-22 05:28N 55°52' E 012°50'0 0.0
2018-Apr-22 04:58N 55°52' E 012°50'0 0.0
2018-Apr-22 04:28N 55°52' E 012°50'0 0.0
2018-Apr-22 03:58N 55°52' E 012°50'0 0.0
2018-Apr-22 03:28N 55°52' E 012°50'0 0.0
2018-Apr-22 02:58N 55°52' E 012°50'0 0.0
2018-Apr-22 02:28N 55°52' E 012°50'0 0.0
2018-Apr-22 01:58N 55°52' E 012°50'0 0.0
2018-Apr-22 01:28N 55°52' E 012°50'0 0.0
2018-Apr-22 00:58N 55°52' E 012°50'0 0.0
2018-Apr-22 00:28N 55°52' E 012°50'0 0.0
2018-Apr-21 23:58N 55°52' E 012°50'0 0.0
2018-Apr-21 23:28N 55°52' E 012°50'0 0.0
2018-Apr-21 22:58N 55°52' E 012°50'0 0.0
2018-Apr-21 22:28N 55°52' E 012°50'0 0.0
2018-Apr-21 21:58N 55°52' E 012°50'0 0.0
2018-Apr-21 21:28N 55°52' E 012°50'0 0.0
2018-Apr-21 20:58N 55°52' E 012°50'0 0.0
2018-Apr-21 20:28N 55°52' E 012°50'0 0.0
2018-Apr-21 19:58N 55°52' E 012°50'0 0.0
2018-Apr-21 19:28N 55°52' E 012°50'0 0.0
2018-Apr-21 18:58N 55°52' E 012°50'0 0.0
2018-Apr-21 18:28N 55°52' E 012°50'0 0.0
2018-Apr-21 17:58N 55°52' E 012°50'0 0.0
2018-Apr-21 17:28N 55°52' E 012°50'0 0.0
2018-Apr-21 16:58N 55°52' E 012°50'0 0.0
2018-Apr-21 16:28N 55°52' E 012°50'0 0.0
2018-Apr-21 15:58N 55°52' E 012°50'0 0.0
2018-Apr-21 15:28N 55°52' E 012°50'0 0.0
2018-Apr-21 14:58N 55°52' E 012°50'0 0.0
2018-Apr-21 14:28N 55°52' E 012°50'0 0.0
2018-Apr-21 13:58N 55°52' E 012°50'0 0.0
2018-Apr-21 13:28N 55°52' E 012°50'0 0.0
2018-Apr-21 12:58N 55°52' E 012°50'0 0.0
2018-Apr-21 12:28N 55°52' E 012°50'0 0.0
2018-Apr-21 11:58N 55°52' E 012°50'0 0.0
2018-Apr-21 11:25N 55°52' E 012°50'0 0.0
2018-Apr-21 10:49N 55°52' E 012°50'0 0.0
2018-Apr-21 10:28N 55°52' E 012°50'0 0.0
2018-Apr-21 09:58N 55°52' E 012°50'0 0.0
2018-Apr-21 09:22N 55°52' E 012°50'0 0.0
2018-Apr-21 08:58N 55°52' E 012°50'0 0.0
2018-Apr-21 08:13N 55°52' E 012°50'0 0.0
2018-Apr-21 07:58N 55°52' E 012°50'0 0.0
2018-Apr-21 07:19N 55°52' E 012°50'0 0.0
2018-Apr-21 06:55N 55°52' E 012°50'0 0.0
2018-Apr-21 06:28N 55°52' E 012°50'0 0.0
2018-Apr-21 05:58N 55°52' E 012°50'0 0.0
2018-Apr-21 05:28N 55°52' E 012°50'0 0.0
2018-Apr-21 04:58N 55°52' E 012°50'0 0.0
2018-Apr-21 04:28N 55°52' E 012°50'0 0.0
2018-Apr-21 03:58N 55°52' E 012°50'0 0.0
2018-Apr-21 03:28N 55°52' E 012°50'0 0.0
2018-Apr-21 02:58N 55°52' E 012°50'0 0.0
2018-Apr-21 02:28N 55°52' E 012°50'0 0.0
2018-Apr-21 01:58N 55°52' E 012°50'0 0.0
2018-Apr-21 01:28N 55°52' E 012°50'0 0.0
2018-Apr-21 00:58N 55°52' E 012°50'0 0.0
2018-Apr-21 00:28N 55°52' E 012°50'0 0.0
2018-Apr-20 23:58N 55°52' E 012°50'0 0.0
2018-Apr-20 23:28N 55°52' E 012°50'0 0.0
2018-Apr-20 22:58N 55°52' E 012°50'0 0.0
2018-Apr-20 22:28N 55°52' E 012°50'0 0.0
2018-Apr-20 21:58N 55°52' E 012°50'0 0.0
2018-Apr-20 21:28N 55°52' E 012°50'0 0.0
2018-Apr-20 20:58N 55°52' E 012°50'0 0.0
2018-Apr-20 20:28N 55°52' E 012°50'0 0.0
2018-Apr-20 19:58N 55°52' E 012°50'0 0.0
2018-Apr-20 19:28N 55°52' E 012°50'0 0.0
2018-Apr-20 18:58N 55°52' E 012°50'0 0.0
2018-Apr-20 18:28N 55°52' E 012°50'0 0.0
2018-Apr-20 17:58N 55°52' E 012°50'0 0.0
2018-Apr-20 17:28N 55°52' E 012°50'0 0.0
2018-Apr-20 16:58N 55°52' E 012°50'0 0.0
2018-Apr-20 16:28N 55°52' E 012°50'0 0.0
2018-Apr-20 15:58N 55°52' E 012°50'0 0.0
2018-Apr-20 15:28N 55°52' E 012°50'0 0.0
2018-Apr-20 14:58N 55°52' E 012°50'0 0.6
2018-Apr-20 14:31N 55°52' E 012°50'3 5.4
2018-Apr-20 14:01N 55°53' E 012°46'1 1.9
2018-Apr-20 13:31N 55°53' E 012°44'3 7.0
2018-Apr-20 13:00N 55°55' E 012°39'4 7.8
2018-Apr-20 12:31N 55°58' E 012°38'4 7.7
2018-Apr-20 12:01N 56°02' E 012°39'4 7.3
2018-Apr-20 11:31N 56°05' E 012°35'5 8.0
2018-Apr-20 10:53N 56°08' E 012°27'3 8.0
2018-Apr-20 10:27N 56°10' E 012°22'37 8.5
2018-Apr-20 06:06N 56°43' E 011°52'1 9.6
2018-Apr-20 06:00N 56°44' E 011°52'5 9.5
2018-Apr-20 05:28N 56°49' E 011°49'6 9.8
2018-Apr-20 04:52N 56°55' E 011°46'5 9.9
2018-Apr-20 04:20N 56°59' E 011°42'4 9.6
2018-Apr-20 03:57N 57°03' E 011°40'4 9.4
2018-Apr-20 03:30N 57°07' E 011°37'5 9.1
2018-Apr-20 03:00N 57°11' E 011°35'5 9.0
2018-Apr-20 02:30N 57°16' E 011°32'5 9.5
2018-Apr-20 02:00N 57°20' E 011°29'5 9.7
2018-Apr-20 01:30N 57°25' E 011°26'5 9.4
2018-Apr-20 01:01N 57°29' E 011°23'5 9.2
2018-Apr-20 00:31N 57°33' E 011°19'5 9.2
2018-Apr-20 00:00N 57°37' E 011°14'5 9.3
2018-Apr-19 23:30N 57°41' E 011°10'5 9.2
2018-Apr-19 23:00N 57°45' E 011°06'4 9.0
2018-Apr-19 22:31N 57°49' E 011°02'5 9.3
2018-Apr-19 22:00N 57°53' E 010°58'5 9.4
2018-Apr-19 21:31N 57°57' E 010°54'5 9.6
2018-Apr-19 21:01N 58°01' E 010°49'510.0
2018-Apr-19 20:30N 58°05' E 010°44'5 9.4
2018-Apr-19 20:00N 58°10' E 010°40'4 9.0
2018-Apr-19 19:31N 58°13' E 010°36'5 8.9
2018-Apr-19 18:55N 58°18' E 010°30'4 9.4
2018-Apr-19 18:30N 58°21' E 010°27'5 9.4
2018-Apr-19 18:01N 58°25' E 010°22'5 9.5
2018-Apr-19 17:27N 58°30' E 010°17'4 9.5
2018-Apr-19 17:01N 58°34' E 010°13'5 9.4
2018-Apr-19 16:30N 58°38' E 010°08'5 9.7
2018-Apr-19 16:00N 58°42' E 010°04'5 9.7
2018-Apr-19 15:31N 58°46' E 009°60'5 9.9
2018-Apr-19 15:00N 58°50' E 009°55'5 9.4
2018-Apr-19 14:31N 58°54' E 009°50'5 9.4
2018-Apr-19 13:59N 58°59' E 009°47'5 9.3
2018-Apr-19 13:30N 59°03' E 009°42'4 7.7
2018-Apr-19 13:00N 59°06' E 009°38'1 2.6
2018-Apr-19 12:31N 59°07' E 009°37'0 0.0
2018-Apr-19 12:00N 59°07' E 009°37'0 0.0
2018-Apr-19 11:29N 59°07' E 009°37'0 0.0
2018-Apr-19 10:59N 59°07' E 009°37'0 0.0
2018-Apr-19 10:29N 59°07' E 009°37'0 0.0
2018-Apr-19 09:59N 59°07' E 009°37'0 0.0
2018-Apr-19 09:29N 59°07' E 009°37'0 0.0
2018-Apr-19 08:59N 59°07' E 009°37'0 0.1
2018-Apr-19 08:29N 59°07' E 009°37'0 0.1
2018-Apr-19 07:59N 59°07' E 009°37'0 0.0
2018-Apr-19 07:29N 59°07' E 009°37'0 0.0
2018-Apr-19 06:59N 59°07' E 009°37'0 0.0
2018-Apr-19 06:29N 59°07' E 009°37'0 0.0
2018-Apr-19 05:59N 59°07' E 009°37'0 0.0
2018-Apr-19 05:29N 59°07' E 009°37'0 0.0
2018-Apr-19 04:59N 59°07' E 009°37'0 0.0
2018-Apr-19 04:29N 59°07' E 009°37'0 0.0
2018-Apr-19 03:59N 59°07' E 009°37'0 0.0
2018-Apr-19 03:29N 59°07' E 009°37'0 0.0
2018-Apr-19 02:59N 59°07' E 009°37'0 0.0
2018-Apr-19 02:29N 59°07' E 009°37'0 0.0
2018-Apr-19 01:59N 59°07' E 009°37'0 0.0
2018-Apr-19 01:29N 59°07' E 009°37'0 0.0
2018-Apr-19 00:59N 59°07' E 009°37'0 0.0
2018-Apr-19 00:29N 59°07' E 009°37'0 0.0
2018-Apr-18 23:59N 59°07' E 009°37'0 0.0
2018-Apr-18 23:29N 59°07' E 009°37'0 0.0
2018-Apr-18 22:59N 59°07' E 009°37'0 0.0
2018-Apr-18 22:29N 59°07' E 009°37'0 0.0
2018-Apr-18 21:59N 59°07' E 009°37'0 0.0
2018-Apr-18 21:29N 59°07' E 009°37'0 0.0
2018-Apr-18 20:59N 59°07' E 009°37'0 0.0
2018-Apr-18 20:29N 59°07' E 009°37'0 0.0
2018-Apr-18 19:59N 59°07' E 009°37'0 0.0
2018-Apr-18 19:29N 59°07' E 009°37'0 0.0
2018-Apr-18 18:59N 59°07' E 009°37'0 0.0
2018-Apr-18 18:29N 59°07' E 009°37'0 0.0
2018-Apr-18 17:59N 59°07' E 009°37'0 0.0
2018-Apr-18 17:29N 59°07' E 009°37'0 0.0
2018-Apr-18 16:59N 59°07' E 009°37'0 0.0
2018-Apr-18 16:29N 59°07' E 009°37'0 0.0
2018-Apr-18 16:00N 59°07' E 009°37'4 8.1
2018-Apr-18 15:30N 59°03' E 009°40'5 9.1
2018-Apr-18 15:00N 59°00' E 009°47'510.2
2018-Apr-18 14:30N 58°56' E 009°52'510.4
2018-Apr-18 14:00N 58°56' E 010°02'510.8
2018-Apr-18 13:30N 58°57' E 010°12'510.9
2018-Apr-18 13:00N 58°58' E 010°22'510.8
2018-Apr-18 12:30N 58°60' E 010°33'510.4
2018-Apr-18 12:00N 59°01' E 010°42'510.6
2018-Apr-18 11:30N 59°01' E 010°53'4 7.4
2018-Apr-18 11:00N 59°04' E 010°58'611.1
2018-Apr-18 10:30N 59°09' E 010°58'2 3.5
2018-Apr-18 10:00N 59°11' E 010°57'0 0.0
2018-Apr-18 09:30N 59°11' E 010°57'0 0.0
2018-Apr-18 09:00N 59°11' E 010°57'0 0.0
2018-Apr-18 08:30N 59°11' E 010°57'0 0.0
2018-Apr-18 07:58N 59°11' E 010°57'0 0.0
2018-Apr-18 07:28N 59°11' E 010°57'0 0.0
2018-Apr-18 06:58N 59°11' E 010°57'0 0.0
2018-Apr-18 06:28N 59°11' E 010°57'0 0.0
2018-Apr-18 05:58N 59°11' E 010°57'0 0.0
2018-Apr-18 05:28N 59°11' E 010°57'0 0.0
2018-Apr-18 04:58N 59°11' E 010°57'0 0.0
2018-Apr-18 04:28N 59°11' E 010°57'0 0.0
2018-Apr-18 03:58N 59°11' E 010°57'0 0.0
2018-Apr-18 03:28N 59°11' E 010°57'0 0.0
2018-Apr-18 02:58N 59°11' E 010°57'0 0.0
2018-Apr-18 02:28N 59°11' E 010°57'0 0.0
2018-Apr-18 01:58N 59°11' E 010°57'0 0.0
2018-Apr-18 01:28N 59°11' E 010°57'0 0.0
2018-Apr-18 00:58N 59°11' E 010°57'0 0.0
2018-Apr-18 00:28N 59°11' E 010°57'0 0.0
2018-Apr-17 23:58N 59°11' E 010°57'0 0.0
2018-Apr-17 23:28N 59°11' E 010°57'0 0.0
2018-Apr-17 22:58N 59°11' E 010°57'0 0.0
2018-Apr-17 22:28N 59°11' E 010°57'0 0.0
2018-Apr-17 21:58N 59°11' E 010°57'0 0.0
2018-Apr-17 21:28N 59°11' E 010°57'0 0.0
2018-Apr-17 20:58N 59°11' E 010°57'0 0.0
2018-Apr-17 20:28N 59°11' E 010°57'0 0.0
2018-Apr-17 19:58N 59°11' E 010°57'0 0.0
2018-Apr-17 19:28N 59°11' E 010°57'0 0.0
2018-Apr-17 18:58N 59°11' E 010°57'0 0.0
2018-Apr-17 18:28N 59°11' E 010°57'0 0.0
2018-Apr-17 17:58N 59°11' E 010°57'0 0.0
2018-Apr-17 17:30N 59°11' E 010°57'4 7.3
2018-Apr-17 17:00N 59°07' E 010°58'510.3
2018-Apr-17 16:31N 59°02' E 010°58'4 7.7
2018-Apr-17 16:00N 59°02' E 010°51'5 9.7
2018-Apr-17 15:30N 59°06' E 010°44'5 9.8
2018-Apr-17 15:00N 59°10' E 010°39'510.3
2018-Apr-17 14:30N 59°15' E 010°37'5 9.8
2018-Apr-17 14:00N 59°20' E 010°35'4 8.8
2018-Apr-17 13:30N 59°24' E 010°32'2 3.6
2018-Apr-17 13:00N 59°25' E 010°30'0 0.0
2018-Apr-17 12:29N 59°25' E 010°30'0 0.0
2018-Apr-17 11:59N 59°25' E 010°30'0 0.0
2018-Apr-17 11:29N 59°25' E 010°30'0 0.0
2018-Apr-17 10:59N 59°25' E 010°30'0 0.0
2018-Apr-17 10:29N 59°25' E 010°30'0 0.0
2018-Apr-17 09:59N 59°25' E 010°30'0 0.0
2018-Apr-17 09:29N 59°25' E 010°30'0 0.0
2018-Apr-17 08:59N 59°25' E 010°30'0 0.0
2018-Apr-17 08:29N 59°25' E 010°30'0 0.0
2018-Apr-17 08:00N 59°25' E 010°30'3 6.9
2018-Apr-17 07:30N 59°23' E 010°35'611.8
2018-Apr-17 07:00N 59°17' E 010°37'612.0
2018-Apr-17 06:30N 59°11' E 010°39'612.0
2018-Apr-17 06:00N 59°05' E 010°38'  
Track history (hours):
 
Tides and Currents Weather Stations Pressure Air Temp Water Temp Dewpoint Dewpoint Depression Visibility Wind Speed Wind Dir Waves Ship Positions

Wilson Lahn

Last reported at 2018-Apr-27 05:54 UTC. Time now 2018-Apr-27 08:40 UTC.
Position N 59°07' E 004°51'.

Length 83 m; draft 4.7 m.

Type: Cargo ship. MMSI: 314259000.

Date/timePositionNaut miles runAvg speedWind from/ knotsBaromVisibWave heightAir tempDewpointWater temp
2018-Apr-27 05:54N 59°07' E 004°51'4 9.0
2018-Apr-27 05:31N 59°04' E 004°54'5 9.2
2018-Apr-27 05:00N 59°00' E 004°59'5 9.3
2018-Apr-27 04:30N 58°56' E 005°04'5 9.7
2018-Apr-27 04:00N 58°52' E 005°09'5 9.7
2018-Apr-27 03:30N 58°48' E 005°14'5 9.3
2018-Apr-27 03:01N 58°44' E 005°18'4 8.8
2018-Apr-27 02:31N 58°40' E 005°22'4 8.6
2018-Apr-27 02:00N 58°37' E 005°26'4 8.9
2018-Apr-27 01:30N 58°33' E 005°31'5 9.2
2018-Apr-27 01:00N 58°29' E 005°36'5 9.2
2018-Apr-27 00:30N 58°26' E 005°42'5 9.3
2018-Apr-27 00:01N 58°23' E 005°49'5 9.3
2018-Apr-26 23:31N 58°20' E 005°56'4 9.0
2018-Apr-26 23:01N 58°17' E 006°02'4 8.5
2018-Apr-26 22:30N 58°14' E 006°08'4 8.5
2018-Apr-26 22:00N 58°11' E 006°14'4 8.7
2018-Apr-26 21:30N 58°08' E 006°20'4 8.7
2018-Apr-26 21:01N 58°05' E 006°26'4 8.6
2018-Apr-26 20:30N 58°02' E 006°32'4 8.2
2018-Apr-26 20:00N 57°60' E 006°38'4 8.3
2018-Apr-26 19:30N 57°58' E 006°45'4 8.5
2018-Apr-26 19:01N 57°56' E 006°53'510.4
2018-Apr-26 18:30N 57°55' E 007°02'510.4
2018-Apr-26 18:00N 57°54' E 007°12'5 9.1
2018-Apr-26 17:30N 57°54' E 007°20'4 8.8
2018-Apr-26 17:00N 57°54' E 007°29'4 8.6
2018-Apr-26 16:30N 57°54' E 007°37'5 8.7
2018-Apr-26 15:59N 57°53' E 007°45'4 8.7
2018-Apr-26 15:30N 57°53' E 007°53'4 8.6
2018-Apr-26 15:00N 57°53' E 008°01'4 8.6
2018-Apr-26 14:30N 57°53' E 008°09'4 8.5
2018-Apr-26 13:59N 57°52' E 008°17'74 8.9
2018-Apr-26 05:42N 57°49' E 010°36'1 6.8
2018-Apr-26 05:29N 57°48' E 010°39'3 6.7
2018-Apr-26 05:00N 57°48' E 010°45'4 7.7
2018-Apr-26 04:30N 57°44' E 010°47'510.4
2018-Apr-26 04:01N 57°39' E 010°47'510.3
2018-Apr-26 03:30N 57°34' E 010°45'510.2
2018-Apr-26 03:00N 57°29' E 010°45'510.0
2018-Apr-26 02:30N 57°24' E 010°44'76 6.7
2018-Apr-25 15:16N 56°10' E 010°14'1 0.1
2018-Apr-25 03:48N 56°09' E 010°13'1 2.5
2018-Apr-25 03:28N 56°10' E 010°14'3 6.8
2018-Apr-25 03:00N 56°08' E 010°19'71 9.6
2018-Apr-24 19:36N 56°10' E 012°26'310.5
2018-Apr-24 19:19N 56°08' E 012°31'410.8
2018-Apr-24 18:55N 56°05' E 012°36'4 9.5
2018-Apr-24 18:30N 56°02' E 012°40'510.0
2018-Apr-24 18:00N 55°57' E 012°43'510.4
2018-Apr-24 17:30N 55°53' E 012°47'2 3.6
2018-Apr-24 17:00N 55°52' E 012°50'0 0.0
2018-Apr-24 16:30N 55°52' E 012°50'0 0.0
2018-Apr-24 16:00N 55°52' E 012°50'0 0.0
2018-Apr-24 15:30N 55°52' E 012°50'0 0.0
2018-Apr-24 14:58N 55°52' E 012°50'0 0.0
2018-Apr-24 14:28N 55°52' E 012°50'0 0.0
2018-Apr-24 13:55N 55°52' E 012°50'0 0.0
2018-Apr-24 13:28N 55°52' E 012°50'0 0.0
2018-Apr-24 12:58N 55°52' E 012°50'0 0.0
2018-Apr-24 12:28N 55°52' E 012°50'0 0.0
2018-Apr-24 11:58N 55°52' E 012°50'0 0.0
2018-Apr-24 11:28N 55°52' E 012°50'0 0.0
2018-Apr-24 10:58N 55°52' E 012°50'0 0.0
2018-Apr-24 10:28N 55°52' E 012°50'0 0.0
2018-Apr-24 09:58N 55°52' E 012°50'0 0.0
2018-Apr-24 09:25N 55°52' E 012°50'0 0.0
2018-Apr-24 08:58N 55°52' E 012°50'0 0.0
2018-Apr-24 08:28N 55°52' E 012°50'0 0.0
2018-Apr-24 07:58N 55°52' E 012°50'0 0.0
2018-Apr-24 07:28N 55°52' E 012°50'0 0.0
2018-Apr-24 06:55N 55°52' E 012°50'0 0.0
2018-Apr-24 06:28N 55°52' E 012°50'0 0.0
2018-Apr-24 05:58N 55°52' E 012°50'0 0.0
2018-Apr-24 05:28N 55°52' E 012°50'0 0.0
2018-Apr-24 04:58N 55°52' E 012°50'0 0.0
2018-Apr-24 04:25N 55°52' E 012°50'0 0.0
2018-Apr-24 03:58N 55°52' E 012°50'0 0.0
2018-Apr-24 03:28N 55°52' E 012°50'0 0.0
2018-Apr-24 02:58N 55°52' E 012°50'0 0.0
2018-Apr-24 02:28N 55°52' E 012°50'0 0.0
2018-Apr-24 01:58N 55°52' E 012°50'0 0.0
2018-Apr-24 01:28N 55°52' E 012°50'0 0.0
2018-Apr-24 00:58N 55°52' E 012°50'0 0.0
2018-Apr-24 00:28N 55°52' E 012°50'0 0.0
2018-Apr-23 23:58N 55°52' E 012°50'0 0.0
2018-Apr-23 23:28N 55°52' E 012°50'0 0.0
2018-Apr-23 22:58N 55°52' E 012°50'0 0.0
2018-Apr-23 22:28N 55°52' E 012°50'0 0.0
2018-Apr-23 21:58N 55°52' E 012°50'0 0.0
2018-Apr-23 21:28N 55°52' E 012°50'0 0.0
2018-Apr-23 20:58N 55°52' E 012°50'0 0.0
2018-Apr-23 20:28N 55°52' E 012°50'0 0.0
2018-Apr-23 19:55N 55°52' E 012°50'0 0.0
2018-Apr-23 19:28N 55°52' E 012°50'0 0.0
2018-Apr-23 18:58N 55°52' E 012°50'0 0.0
2018-Apr-23 18:28N 55°52' E 012°50'0 0.0
2018-Apr-23 17:58N 55°52' E 012°50'0 0.0
2018-Apr-23 17:25N 55°52' E 012°50'0 0.0
2018-Apr-23 16:58N 55°52' E 012°50'0 0.0
2018-Apr-23 16:28N 55°52' E 012°50'0 0.0
2018-Apr-23 15:58N 55°52' E 012°50'0 0.0
2018-Apr-23 15:28N 55°52' E 012°50'0 0.0
2018-Apr-23 14:58N 55°52' E 012°50'0 0.0
2018-Apr-23 14:28N 55°52' E 012°50'0 0.0
2018-Apr-23 13:58N 55°52' E 012°50'0 0.0
2018-Apr-23 13:28N 55°52' E 012°50'0 0.0
2018-Apr-23 12:58N 55°52' E 012°50'0 0.0
2018-Apr-23 12:28N 55°52' E 012°50'0 0.0
2018-Apr-23 11:58N 55°52' E 012°50'0 0.0
2018-Apr-23 11:28N 55°52' E 012°50'0 0.0
2018-Apr-23 10:58N 55°52' E 012°50'0 0.0
2018-Apr-23 10:28N 55°52' E 012°50'0 0.0
2018-Apr-23 09:58N 55°52' E 012°50'0 0.0
2018-Apr-23 09:28N 55°52' E 012°50'0 0.0
2018-Apr-23 08:58N 55°52' E 012°50'0 0.0
2018-Apr-23 08:28N 55°52' E 012°50'0 0.0
2018-Apr-23 07:58N 55°52' E 012°50'0 0.0
2018-Apr-23 07:28N 55°52' E 012°50'0 0.0
2018-Apr-23 06:58N 55°52' E 012°50'0 0.0
2018-Apr-23 06:25N 55°52' E 012°50'0 0.0
2018-Apr-23 05:58N 55°52' E 012°50'0 0.0
2018-Apr-23 05:28N 55°52' E 012°50'0 0.0
2018-Apr-23 04:58N 55°52' E 012°50'0 0.0
2018-Apr-23 04:28N 55°52' E 012°50'0 0.0
2018-Apr-23 03:58N 55°52' E 012°50'0 0.0
2018-Apr-23 03:28N 55°52' E 012°50'0 0.0
2018-Apr-23 02:58N 55°52' E 012°50'0 0.0
2018-Apr-23 02:28N 55°52' E 012°50'0 0.0
2018-Apr-23 01:58N 55°52' E 012°50'0 0.0
2018-Apr-23 01:28N 55°52' E 012°50'0 0.0
2018-Apr-23 00:58N 55°52' E 012°50'0 0.0
2018-Apr-23 00:28N 55°52' E 012°50'0 0.0
2018-Apr-22 23:58N 55°52' E 012°50'0 0.0
2018-Apr-22 23:28N 55°52' E 012°50'0 0.0
2018-Apr-22 22:58N 55°52' E 012°50'0 0.0
2018-Apr-22 22:28N 55°52' E 012°50'0 0.0
2018-Apr-22 21:58N 55°52' E 012°50'0 0.0
2018-Apr-22 21:28N 55°52' E 012°50'0 0.0
2018-Apr-22 20:58N 55°52' E 012°50'0 0.0
2018-Apr-22 20:28N 55°52' E 012°50'0 0.0
2018-Apr-22 19:58N 55°52' E 012°50'0 0.0
2018-Apr-22 19:28N 55°52' E 012°50'0 0.0
2018-Apr-22 18:58N 55°52' E 012°50'0 0.0
2018-Apr-22 18:28N 55°52' E 012°50'0 0.0
2018-Apr-22 17:58N 55°52' E 012°50'0 0.0
2018-Apr-22 17:28N 55°52' E 012°50'0 0.0
2018-Apr-22 16:58N 55°52' E 012°50'0 0.0
2018-Apr-22 16:28N 55°52' E 012°50'0 0.0
2018-Apr-22 15:58N 55°52' E 012°50'0 0.0
2018-Apr-22 15:28N 55°52' E 012°50'0 0.0
2018-Apr-22 14:58N 55°52' E 012°50'0 0.0
2018-Apr-22 14:28N 55°52' E 012°50'0 0.0
2018-Apr-22 13:58N 55°52' E 012°50'0 0.0
2018-Apr-22 13:28N 55°52' E 012°50'0 0.0
2018-Apr-22 12:58N 55°52' E 012°50'0 0.0
2018-Apr-22 12:25N 55°52' E 012°50'0 0.0
2018-Apr-22 11:58N 55°52' E 012°50'0 0.0
2018-Apr-22 11:25N 55°52' E 012°50'0 0.0
2018-Apr-22 10:58N 55°52' E 012°50'0 0.0
2018-Apr-22 10:28N 55°52' E 012°50'0 0.0
2018-Apr-22 09:58N 55°52' E 012°50'0 0.0
2018-Apr-22 09:28N 55°52' E 012°50'0 0.0
2018-Apr-22 08:58N 55°52' E 012°50'0 0.0
2018-Apr-22 08:28N 55°52' E 012°50'0 0.0
2018-Apr-22 07:58N 55°52' E 012°50'0 0.0
2018-Apr-22 07:28N 55°52' E 012°50'0 0.0
2018-Apr-22 06:58N 55°52' E 012°50'0 0.0
2018-Apr-22 06:28N 55°52' E 012°50'0 0.0
2018-Apr-22 05:58N 55°52' E 012°50'0 0.0
2018-Apr-22 05:28N 55°52' E 012°50'0 0.0
2018-Apr-22 04:58N 55°52' E 012°50'0 0.0
2018-Apr-22 04:28N 55°52' E 012°50'0 0.0
2018-Apr-22 03:58N 55°52' E 012°50'0 0.0
2018-Apr-22 03:28N 55°52' E 012°50'0 0.0
2018-Apr-22 02:58N 55°52' E 012°50'0 0.0
2018-Apr-22 02:28N 55°52' E 012°50'0 0.0
2018-Apr-22 01:58N 55°52' E 012°50'0 0.0
2018-Apr-22 01:28N 55°52' E 012°50'0 0.0
2018-Apr-22 00:58N 55°52' E 012°50'0 0.0
2018-Apr-22 00:28N 55°52' E 012°50'0 0.0
2018-Apr-21 23:58N 55°52' E 012°50'0 0.0
2018-Apr-21 23:28N 55°52' E 012°50'0 0.0
2018-Apr-21 22:58N 55°52' E 012°50'0 0.0
2018-Apr-21 22:28N 55°52' E 012°50'0 0.0
2018-Apr-21 21:58N 55°52' E 012°50'0 0.0
2018-Apr-21 21:28N 55°52' E 012°50'0 0.0
2018-Apr-21 20:58N 55°52' E 012°50'0 0.0
2018-Apr-21 20:28N 55°52' E 012°50'0 0.0
2018-Apr-21 19:58N 55°52' E 012°50'0 0.0
2018-Apr-21 19:28N 55°52' E 012°50'0 0.0
2018-Apr-21 18:58N 55°52' E 012°50'0 0.0
2018-Apr-21 18:28N 55°52' E 012°50'0 0.0
2018-Apr-21 17:58N 55°52' E 012°50'0 0.0
2018-Apr-21 17:28N 55°52' E 012°50'0 0.0
2018-Apr-21 16:58N 55°52' E 012°50'0 0.0
2018-Apr-21 16:28N 55°52' E 012°50'0 0.0
2018-Apr-21 15:58N 55°52' E 012°50'0 0.0
2018-Apr-21 15:28N 55°52' E 012°50'0 0.0
2018-Apr-21 14:58N 55°52' E 012°50'0 0.0
2018-Apr-21 14:28N 55°52' E 012°50'0 0.0
2018-Apr-21 13:58N 55°52' E 012°50'0 0.0
2018-Apr-21 13:28N 55°52' E 012°50'0 0.0
2018-Apr-21 12:58N 55°52' E 012°50'0 0.0
2018-Apr-21 12:28N 55°52' E 012°50'0 0.0
2018-Apr-21 11:58N 55°52' E 012°50'0 0.0
2018-Apr-21 11:25N 55°52' E 012°50'0 0.0
2018-Apr-21 10:49N 55°52' E 012°50'0 0.0
2018-Apr-21 10:28N 55°52' E 012°50'0 0.0
2018-Apr-21 09:58N 55°52' E 012°50'0 0.0
2018-Apr-21 09:22N 55°52' E 012°50'0 0.0
2018-Apr-21 08:58N 55°52' E 012°50'0 0.0
2018-Apr-21 08:13N 55°52' E 012°50'0 0.0
2018-Apr-21 07:58N 55°52' E 012°50'0 0.0
2018-Apr-21 07:19N 55°52' E 012°50'0 0.0
2018-Apr-21 06:55N 55°52' E 012°50'0 0.0
2018-Apr-21 06:28N 55°52' E 012°50'0 0.0
2018-Apr-21 05:58N 55°52' E 012°50'0 0.0
2018-Apr-21 05:28N 55°52' E 012°50'0 0.0
2018-Apr-21 04:58N 55°52' E 012°50'0 0.0
2018-Apr-21 04:28N 55°52' E 012°50'0 0.0
2018-Apr-21 03:58N 55°52' E 012°50'0 0.0
2018-Apr-21 03:28N 55°52' E 012°50'0 0.0
2018-Apr-21 02:58N 55°52' E 012°50'0 0.0
2018-Apr-21 02:28N 55°52' E 012°50'0 0.0
2018-Apr-21 01:58N 55°52' E 012°50'0 0.0
2018-Apr-21 01:28N 55°52' E 012°50'0 0.0
2018-Apr-21 00:58N 55°52' E 012°50'0 0.0
2018-Apr-21 00:28N 55°52' E 012°50'0 0.0
2018-Apr-20 23:58N 55°52' E 012°50'0 0.0
2018-Apr-20 23:28N 55°52' E 012°50'0 0.0
2018-Apr-20 22:58N 55°52' E 012°50'0 0.0
2018-Apr-20 22:28N 55°52' E 012°50'0 0.0
2018-Apr-20 21:58N 55°52' E 012°50'0 0.0
2018-Apr-20 21:28N 55°52' E 012°50'0 0.0
2018-Apr-20 20:58N 55°52' E 012°50'0 0.0
2018-Apr-20 20:28N 55°52' E 012°50'0 0.0
2018-Apr-20 19:58N 55°52' E 012°50'0 0.0
2018-Apr-20 19:28N 55°52' E 012°50'0 0.0
2018-Apr-20 18:58N 55°52' E 012°50'0 0.0
2018-Apr-20 18:28N 55°52' E 012°50'0 0.0
2018-Apr-20 17:58N 55°52' E 012°50'0 0.0
2018-Apr-20 17:28N 55°52' E 012°50'0 0.0
2018-Apr-20 16:58N 55°52' E 012°50'0 0.0
2018-Apr-20 16:28N 55°52' E 012°50'0 0.0
2018-Apr-20 15:58N 55°52' E 012°50'0 0.0
2018-Apr-20 15:28N 55°52' E 012°50'0 0.0
2018-Apr-20 14:58N 55°52' E 012°50'0 0.6
2018-Apr-20 14:31N 55°52' E 012°50'3 5.4
2018-Apr-20 14:01N 55°53' E 012°46'1 1.9
2018-Apr-20 13:31N 55°53' E 012°44'3 7.0
2018-Apr-20 13:00N 55°55' E 012°39'4 7.8
2018-Apr-20 12:31N 55°58' E 012°38'4 7.7
2018-Apr-20 12:01N 56°02' E 012°39'4 7.3
2018-Apr-20 11:31N 56°05' E 012°35'5 8.0
2018-Apr-20 10:53N 56°08' E 012°27'3 8.0
2018-Apr-20 10:27N 56°10' E 012°22'37 8.5
2018-Apr-20 06:06N 56°43' E 011°52'1 9.6
2018-Apr-20 06:00N 56°44' E 011°52'5 9.5
2018-Apr-20 05:28N 56°49' E 011°49'6 9.8
2018-Apr-20 04:52N 56°55' E 011°46'5 9.9
2018-Apr-20 04:20N 56°59' E 011°42'4 9.6
2018-Apr-20 03:57N 57°03' E 011°40'4 9.4
2018-Apr-20 03:30N 57°07' E 011°37'5 9.1
2018-Apr-20 03:00N 57°11' E 011°35'5 9.0
2018-Apr-20 02:30N 57°16' E 011°32'5 9.5
2018-Apr-20 02:00N 57°20' E 011°29'5 9.7
2018-Apr-20 01:30N 57°25' E 011°26'5 9.4
2018-Apr-20 01:01N 57°29' E 011°23'5 9.2
2018-Apr-20 00:31N 57°33' E 011°19'5 9.2
2018-Apr-20 00:00N 57°37' E 011°14'5 9.3
2018-Apr-19 23:30N 57°41' E 011°10'5 9.2
2018-Apr-19 23:00N 57°45' E 011°06'4 9.0
2018-Apr-19 22:31N 57°49' E 011°02'5 9.3
2018-Apr-19 22:00N 57°53' E 010°58'5 9.4
2018-Apr-19 21:31N 57°57' E 010°54'5 9.6
2018-Apr-19 21:01N 58°01' E 010°49'510.0
2018-Apr-19 20:30N 58°05' E 010°44'5 9.4
2018-Apr-19 20:00N 58°10' E 010°40'4 9.0
2018-Apr-19 19:31N 58°13' E 010°36'5 8.9
2018-Apr-19 18:55N 58°18' E 010°30'4 9.4
2018-Apr-19 18:30N 58°21' E 010°27'5 9.4
2018-Apr-19 18:01N 58°25' E 010°22'5 9.5
2018-Apr-19 17:27N 58°30' E 010°17'4 9.5
2018-Apr-19 17:01N 58°34' E 010°13'5 9.4
2018-Apr-19 16:30N 58°38' E 010°08'5 9.7
2018-Apr-19 16:00N 58°42' E 010°04'5 9.7
2018-Apr-19 15:31N 58°46' E 009°60'5 9.9
2018-Apr-19 15:00N 58°50' E 009°55'5 9.4
2018-Apr-19 14:31N 58°54' E 009°50'5 9.4
2018-Apr-19 13:59N 58°59' E 009°47'5 9.3
2018-Apr-19 13:30N 59°03' E 009°42'4 7.7
2018-Apr-19 13:00N 59°06' E 009°38'1 2.6
2018-Apr-19 12:31N 59°07' E 009°37'0 0.0
2018-Apr-19 12:00N 59°07' E 009°37'0 0.0
2018-Apr-19 11:29N 59°07' E 009°37'0 0.0
2018-Apr-19 10:59N 59°07' E 009°37'0 0.0
2018-Apr-19 10:29N 59°07' E 009°37'0 0.0
2018-Apr-19 09:59N 59°07' E 009°37'0 0.0
2018-Apr-19 09:29N 59°07' E 009°37'0 0.0
2018-Apr-19 08:59N 59°07' E 009°37'0 0.1
2018-Apr-19 08:29N 59°07' E 009°37'0 0.1
2018-Apr-19 07:59N 59°07' E 009°37'0 0.0
2018-Apr-19 07:29N 59°07' E 009°37'0 0.0
2018-Apr-19 06:59N 59°07' E 009°37'0 0.0
2018-Apr-19 06:29N 59°07' E 009°37'0 0.0
2018-Apr-19 05:59N 59°07' E 009°37'0 0.0
2018-Apr-19 05:29N 59°07' E 009°37'0 0.0
2018-Apr-19 04:59N 59°07' E 009°37'0 0.0
2018-Apr-19 04:29N 59°07' E 009°37'0 0.0
2018-Apr-19 03:59N 59°07' E 009°37'0 0.0
2018-Apr-19 03:29N 59°07' E 009°37'0 0.0
2018-Apr-19 02:59N 59°07' E 009°37'0 0.0
2018-Apr-19 02:29N 59°07' E 009°37'0 0.0
2018-Apr-19 01:59N 59°07' E 009°37'0 0.0
2018-Apr-19 01:29N 59°07' E 009°37'0 0.0
2018-Apr-19 00:59N 59°07' E 009°37'0 0.0
2018-Apr-19 00:29N 59°07' E 009°37'0 0.0
2018-Apr-18 23:59N 59°07' E 009°37'0 0.0
2018-Apr-18 23:29N 59°07' E 009°37'0 0.0
2018-Apr-18 22:59N 59°07' E 009°37'0 0.0
2018-Apr-18 22:29N 59°07' E 009°37'0 0.0
2018-Apr-18 21:59N 59°07' E 009°37'0 0.0
2018-Apr-18 21:29N 59°07' E 009°37'0 0.0
2018-Apr-18 20:59N 59°07' E 009°37'0 0.0
2018-Apr-18 20:29N 59°07' E 009°37'0 0.0
2018-Apr-18 19:59N 59°07' E 009°37'0 0.0
2018-Apr-18 19:29N 59°07' E 009°37'0 0.0
2018-Apr-18 18:59N 59°07' E 009°37'0 0.0
2018-Apr-18 18:29N 59°07' E 009°37'0 0.0
2018-Apr-18 17:59N 59°07' E 009°37'0 0.0
2018-Apr-18 17:29N 59°07' E 009°37'0 0.0
2018-Apr-18 16:59N 59°07' E 009°37'0 0.0
2018-Apr-18 16:29N 59°07' E 009°37'0 0.0
2018-Apr-18 16:00N 59°07' E 009°37'4 8.1
2018-Apr-18 15:30N 59°03' E 009°40'5 9.1
2018-Apr-18 15:00N 59°00' E 009°47'510.2
2018-Apr-18 14:30N 58°56' E 009°52'510.4
2018-Apr-18 14:00N 58°56' E 010°02'510.8
2018-Apr-18 13:30N 58°57' E 010°12'510.9
2018-Apr-18 13:00N 58°58' E 010°22'510.8
2018-Apr-18 12:30N 58°60' E 010°33'510.4
2018-Apr-18 12:00N 59°01' E 010°42'510.6
2018-Apr-18 11:30N 59°01' E 010°53'4 7.4
2018-Apr-18 11:00N 59°04' E 010°58'611.1
2018-Apr-18 10:30N 59°09' E 010°58'2 3.5
2018-Apr-18 10:00N 59°11' E 010°57'0 0.0
2018-Apr-18 09:30N 59°11' E 010°57'0 0.0
2018-Apr-18 09:00N 59°11' E 010°57'0 0.0
2018-Apr-18 08:30N 59°11' E 010°57'0 0.0
2018-Apr-18 07:58N 59°11' E 010°57'0 0.0
2018-Apr-18 07:28N 59°11' E 010°57'0 0.0
2018-Apr-18 06:58N 59°11' E 010°57'0 0.0
2018-Apr-18 06:28N 59°11' E 010°57'0 0.0
2018-Apr-18 05:58N 59°11' E 010°57'0 0.0
2018-Apr-18 05:28N 59°11' E 010°57'0 0.0
2018-Apr-18 04:58N 59°11' E 010°57'0 0.0
2018-Apr-18 04:28N 59°11' E 010°57'0 0.0
2018-Apr-18 03:58N 59°11' E 010°57'0 0.0
2018-Apr-18 03:28N 59°11' E 010°57'0 0.0
2018-Apr-18 02:58N 59°11' E 010°57'0 0.0
2018-Apr-18 02:28N 59°11' E 010°57'0 0.0
2018-Apr-18 01:58N 59°11' E 010°57'0 0.0
2018-Apr-18 01:28N 59°11' E 010°57'0 0.0
2018-Apr-18 00:58N 59°11' E 010°57'0 0.0
2018-Apr-18 00:28N 59°11' E 010°57'0 0.0
2018-Apr-17 23:58N 59°11' E 010°57'0 0.0
2018-Apr-17 23:28N 59°11' E 010°57'0 0.0
2018-Apr-17 22:58N 59°11' E 010°57'0 0.0
2018-Apr-17 22:28N 59°11' E 010°57'0 0.0
2018-Apr-17 21:58N 59°11' E 010°57'0 0.0
2018-Apr-17 21:28N 59°11' E 010°57'0 0.0
2018-Apr-17 20:58N 59°11' E 010°57'0 0.0
2018-Apr-17 20:28N 59°11' E 010°57'0 0.0
2018-Apr-17 19:58N 59°11' E 010°57'0 0.0
2018-Apr-17 19:28N 59°11' E 010°57'0 0.0
2018-Apr-17 18:58N 59°11' E 010°57'0 0.0
2018-Apr-17 18:28N 59°11' E 010°57'0 0.0
2018-Apr-17 17:58N 59°11' E 010°57'0 0.0
2018-Apr-17 17:30N 59°11' E 010°57'4 7.3
2018-Apr-17 17:00N 59°07' E 010°58'510.3
2018-Apr-17 16:31N 59°02' E 010°58'4 7.7
2018-Apr-17 16:00N 59°02' E 010°51'5 9.7
2018-Apr-17 15:30N 59°06' E 010°44'5 9.8
2018-Apr-17 15:00N 59°10' E 010°39'510.3
2018-Apr-17 14:30N 59°15' E 010°37'5 9.8
2018-Apr-17 14:00N 59°20' E 010°35'4 8.8
2018-Apr-17 13:30N 59°24' E 010°32'2 3.6
2018-Apr-17 13:00N 59°25' E 010°30'0 0.0
2018-Apr-17 12:29N 59°25' E 010°30'0 0.0
2018-Apr-17 11:59N 59°25' E 010°30'0 0.0
2018-Apr-17 11:29N 59°25' E 010°30'0 0.0
2018-Apr-17 10:59N 59°25' E 010°30'0 0.0
2018-Apr-17 10:29N 59°25' E 010°30'0 0.0
2018-Apr-17 09:59N 59°25' E 010°30'0 0.0
2018-Apr-17 09:29N 59°25' E 010°30'0 0.0
2018-Apr-17 08:59N 59°25' E 010°30'0 0.0
2018-Apr-17 08:29N 59°25' E 010°30'0 0.0
2018-Apr-17 08:00N 59°25' E 010°30'3 6.9
2018-Apr-17 07:30N 59°23' E 010°35'611.8
2018-Apr-17 07:00N 59°17' E 010°37'612.0
2018-Apr-17 06:30N 59°11' E 010°39'612.0
2018-Apr-17 06:00N 59°05' E 010°38'  

Dump ship's entire track history